createdAt,value
2017-12-28T00:00:06.812Z,6.53
2017-12-28T00:02:34.712Z,7.27
2017-12-28T00:05:02.366Z,6.25
2017-12-28T00:07:30.521Z,7.67
2017-12-28T00:09:58.169Z,7.32
2017-12-28T00:12:26.125Z,6.87
2017-12-28T00:14:53.734Z,6.93
2017-12-28T00:17:21.381Z,7.12
2017-12-28T00:19:49.026Z,6.47
2017-12-28T00:22:16.634Z,6.03
2017-12-28T00:24:44.296Z,6.82
2017-12-28T00:27:13.465Z,8.27
2017-12-28T00:29:41.488Z,7.28
2017-12-28T00:32:09.925Z,7.28
2017-12-28T00:34:37.576Z,6.80
2017-12-28T00:37:05.245Z,8.63
2017-12-28T00:39:32.900Z,8.43
2017-12-28T00:42:00.548Z,7.83
2017-12-28T00:44:31.223Z,9.05
2017-12-28T00:46:58.914Z,7.83
2017-12-28T00:49:26.604Z,7.13
2017-12-28T00:51:55.265Z,8.02
2017-12-28T00:54:22.916Z,9.97
2017-12-28T00:56:50.733Z,12.47
2017-12-28T00:59:18.385Z,14.60
2017-12-28T01:01:46.000Z,14.97
2017-12-28T01:04:13.704Z,16.57
2017-12-28T01:06:41.545Z,16.08
2017-12-28T01:09:09.399Z,17.67
2017-12-28T01:11:37.017Z,20.10
2017-12-28T01:14:04.673Z,19.67
2017-12-28T01:16:33.837Z,18.77
2017-12-28T01:19:02.097Z,20.27
2017-12-28T01:21:30.577Z,22.67
2017-12-28T01:23:58.355Z,22.40
2017-12-28T01:26:26.116Z,17.83
2017-12-28T01:28:53.776Z,15.80
2017-12-28T01:31:21.546Z,13.82
2017-12-28T01:33:50.090Z,11.00
2017-12-28T01:36:17.697Z,9.67
2017-12-28T01:38:45.349Z,8.93
2017-12-28T01:41:12.988Z,8.15
2017-12-28T01:43:40.636Z,8.40
2017-12-28T01:46:08.909Z,8.03
2017-12-28T01:48:36.817Z,7.37
2017-12-28T01:51:04.660Z,8.82
2017-12-28T01:53:32.538Z,7.23
2017-12-28T01:56:00.412Z,8.13
2017-12-28T01:58:28.611Z,6.87
2017-12-28T02:00:56.535Z,7.53
2017-12-28T02:03:24.149Z,7.30
2017-12-28T02:05:51.785Z,8.93
2017-12-28T02:08:19.429Z,7.40
2017-12-28T02:10:47.053Z,8.75
2017-12-28T02:13:15.197Z,9.33
2017-12-28T02:15:43.516Z,7.80
2017-12-28T02:18:11.132Z,8.40
2017-12-28T02:20:38.781Z,8.07
2017-12-28T02:23:06.517Z,8.50
2017-12-28T02:25:35.361Z,8.48
2017-12-28T02:28:03.051Z,6.80
2017-12-28T02:30:31.332Z,7.47
2017-12-28T02:32:58.941Z,6.57
2017-12-28T02:35:26.602Z,8.30
2017-12-28T02:37:54.978Z,7.57
2017-12-28T02:40:23.403Z,9.18
2017-12-28T02:42:51.016Z,8.40
2017-12-28T02:45:18.841Z,8.88
2017-12-28T02:47:46.452Z,8.18
2017-12-28T02:50:14.754Z,9.77
2017-12-28T02:52:42.639Z,7.75
2017-12-28T02:55:10.287Z,9.03
2017-12-28T02:57:37.960Z,8.40
2017-12-28T03:00:05.769Z,7.90
2017-12-28T03:02:34.193Z,9.53
2017-12-28T03:05:01.813Z,8.67
2017-12-28T03:07:29.467Z,8.67
2017-12-28T03:09:57.085Z,9.30
2017-12-28T03:12:24.729Z,8.60
2017-12-28T03:14:52.388Z,8.83
2017-12-28T03:17:20.047Z,10.10
2017-12-28T03:19:47.710Z,10.18
2017-12-28T03:22:15.326Z,9.43
2017-12-28T03:24:44.418Z,9.77
2017-12-28T03:27:12.105Z,9.47
2017-12-28T03:29:39.941Z,11.15
2017-12-28T03:32:07.956Z,10.27
2017-12-28T03:34:35.719Z,10.52
2017-12-28T03:37:03.329Z,10.67
2017-12-28T03:39:30.980Z,9.93
2017-12-28T03:41:58.797Z,11.18
2017-12-28T03:44:26.437Z,11.20
2017-12-28T03:46:54.147Z,11.90
2017-12-28T03:49:22.554Z,11.30
2017-12-28T03:51:50.978Z,10.60
2017-12-28T03:54:18.588Z,11.93
2017-12-28T03:56:46.267Z,12.00
2017-12-28T03:59:13.961Z,11.75
2017-12-28T04:01:42.297Z,11.25
2017-12-28T04:04:10.938Z,11.57
2017-12-28T04:06:38.555Z,12.10
2017-12-28T04:09:06.284Z,12.47
2017-12-28T04:11:33.905Z,10.37
2017-12-28T04:14:01.768Z,13.53
2017-12-28T04:16:29.894Z,13.80
2017-12-28T04:18:57.821Z,12.23
2017-12-28T04:21:25.441Z,11.67
2017-12-28T04:23:53.093Z,13.00
2017-12-28T04:26:22.243Z,12.93
2017-12-28T04:28:50.689Z,13.02
2017-12-28T04:31:18.332Z,11.82
2017-12-28T04:33:46.243Z,12.83
2017-12-28T04:36:13.880Z,12.88
2017-12-28T04:38:41.534Z,13.05
2017-12-28T04:41:09.193Z,13.15
2017-12-28T04:43:36.835Z,13.68
2017-12-28T04:46:04.898Z,13.63
2017-12-28T04:48:32.595Z,13.63
2017-12-28T04:51:00.359Z,14.10
2017-12-28T04:53:28.065Z,13.67
2017-12-28T04:55:57.128Z,14.10
2017-12-28T04:58:24.751Z,14.73
2017-12-28T05:00:52.557Z,16.37
2017-12-28T05:03:20.198Z,14.80
2017-12-28T05:05:48.513Z,17.08
2017-12-28T05:08:16.892Z,15.73
2017-12-28T05:10:44.610Z,16.53
2017-12-28T05:13:12.229Z,15.97
2017-12-28T05:15:40.062Z,15.20
2017-12-28T05:18:07.716Z,16.07
2017-12-28T05:20:35.328Z,17.20
2017-12-28T05:23:03.031Z,15.13
2017-12-28T05:25:30.883Z,14.07
2017-12-28T05:28:01.336Z,13.73
2017-12-28T05:30:29.862Z,13.60
2017-12-28T05:32:57.556Z,13.17
2017-12-28T05:35:26.260Z,11.17
2017-12-28T05:37:57.309Z,8.75
2017-12-28T05:40:26.808Z,8.07
2017-12-28T05:42:54.646Z,7.87
2017-12-28T05:45:23.465Z,7.37
2017-12-28T05:47:51.398Z,5.57
2017-12-28T05:50:19.948Z,5.00
2017-12-28T05:52:49.925Z,6.00
2017-12-28T05:55:17.566Z,4.30
2017-12-28T05:57:46.231Z,3.85
2017-12-28T06:00:14.097Z,2.93
2017-12-28T06:02:41.767Z,3.40
2017-12-28T06:05:09.744Z,2.30
2017-12-28T06:07:37.353Z,2.10
2017-12-28T06:10:05.329Z,2.17
2017-12-28T06:12:33.145Z,1.80
2017-12-28T06:15:00.801Z,1.53
2017-12-28T06:17:28.439Z,1.63
2017-12-28T06:19:56.305Z,1.10
2017-12-28T06:22:23.912Z,0.90
2017-12-28T06:24:51.742Z,1.40
2017-12-28T06:27:19.602Z,1.08
2017-12-28T06:29:47.534Z,1.30
2017-12-28T06:32:15.223Z,0.95
2017-12-28T06:34:42.828Z,1.20
2017-12-28T06:37:11.568Z,1.55
2017-12-28T06:39:40.032Z,1.98
2017-12-28T06:42:07.780Z,1.73
2017-12-28T06:44:36.230Z,1.33
2017-12-28T06:47:04.491Z,0.90
2017-12-28T06:49:32.147Z,1.45
2017-12-28T06:51:59.948Z,1.17
2017-12-28T06:54:27.748Z,1.37
2017-12-28T06:56:55.353Z,1.33
2017-12-28T06:59:23.272Z,0.90
2017-12-28T07:01:51.229Z,1.00
2017-12-28T07:04:19.941Z,1.07
2017-12-28T07:06:47.723Z,1.17
2017-12-28T07:09:15.713Z,1.00
2017-12-28T07:11:44.210Z,0.90
2017-12-28T07:14:12.425Z,1.03
2017-12-28T07:16:40.288Z,0.83
2017-12-28T07:19:07.900Z,1.00
2017-12-28T07:21:35.746Z,1.10
2017-12-28T07:24:03.366Z,1.27
2017-12-28T07:26:31.129Z,1.23
2017-12-28T07:28:58.757Z,1.13
2017-12-28T07:31:26.417Z,1.37
2017-12-28T07:33:54.321Z,1.00
2017-12-28T07:36:22.534Z,1.00
2017-12-28T07:38:50.190Z,1.53
2017-12-28T07:41:18.921Z,1.60
2017-12-28T07:43:46.525Z,1.80
2017-12-28T07:46:14.168Z,1.87
2017-12-28T07:48:41.824Z,1.50
2017-12-28T07:51:09.497Z,1.40
2017-12-28T07:53:37.344Z,1.87
2017-12-28T07:56:05.837Z,2.03
2017-12-28T07:58:34.901Z,2.05
2017-12-28T08:01:02.526Z,1.75
2017-12-28T08:03:30.949Z,1.67
2017-12-28T08:05:58.564Z,2.57
2017-12-28T08:08:26.381Z,2.40
2017-12-28T08:10:54.019Z,1.53
2017-12-28T08:13:21.661Z,1.87
2017-12-28T08:15:49.417Z,1.93
2017-12-28T08:18:17.857Z,1.60
2017-12-28T08:20:46.514Z,2.45
2017-12-28T08:23:14.207Z,1.90
2017-12-28T08:25:42.425Z,1.90
2017-12-28T08:28:10.068Z,1.85
2017-12-28T08:30:37.672Z,2.15
2017-12-28T08:33:05.361Z,2.10
2017-12-28T08:35:32.979Z,2.55
2017-12-28T08:38:00.761Z,1.83
2017-12-28T08:40:28.366Z,1.73
2017-12-28T08:42:56.789Z,1.57
2017-12-28T08:45:24.433Z,2.10
2017-12-28T08:47:52.049Z,2.20
2017-12-28T08:50:19.697Z,2.27
2017-12-28T08:52:47.306Z,1.85
2017-12-28T08:55:14.982Z,2.60
2017-12-28T08:57:43.565Z,1.47
2017-12-28T09:00:11.208Z,1.80
2017-12-28T09:02:38.839Z,1.53
2017-12-28T09:05:06.503Z,1.55
2017-12-28T09:07:35.061Z,1.80
2017-12-28T09:10:02.669Z,1.37
2017-12-28T09:12:30.326Z,1.20
2017-12-28T09:14:57.946Z,1.70
2017-12-28T09:17:26.453Z,1.73
2017-12-28T09:19:54.065Z,2.13
2017-12-28T09:22:22.369Z,1.77
2017-12-28T09:24:50.745Z,2.53
2017-12-28T09:27:19.117Z,2.90
2017-12-28T09:29:47.551Z,2.07
2017-12-28T09:32:15.156Z,2.80
2017-12-28T09:34:42.801Z,2.70
2017-12-28T09:37:10.441Z,2.40
2017-12-28T09:39:38.093Z,2.67
2017-12-28T09:42:06.062Z,3.37
2017-12-28T09:44:33.675Z,2.10
2017-12-28T09:47:01.329Z,2.27
2017-12-28T09:49:29.935Z,2.13
2017-12-28T09:51:57.580Z,2.70
2017-12-28T09:54:25.190Z,2.60
2017-12-28T09:56:52.842Z,2.87
2017-12-28T09:59:20.484Z,2.62
2017-12-28T10:01:48.126Z,2.17
2017-12-28T10:04:15.781Z,2.10
2017-12-28T10:06:43.393Z,2.20
2017-12-28T10:09:11.001Z,2.70
2017-12-28T10:11:38.645Z,2.20
2017-12-28T10:14:07.025Z,1.90
2017-12-28T10:16:35.444Z,2.22
2017-12-28T10:19:03.054Z,2.47
2017-12-28T10:21:30.677Z,2.10
2017-12-28T10:23:58.333Z,3.50
2017-12-28T10:26:26.123Z,3.37
2017-12-28T10:28:53.810Z,3.20
2017-12-28T10:31:21.449Z,2.92
2017-12-28T10:33:49.883Z,2.90
2017-12-28T10:36:17.557Z,3.15
2017-12-28T10:38:45.228Z,2.17
2017-12-28T10:41:13.082Z,2.30
2017-12-28T10:43:40.846Z,2.97
2017-12-28T10:46:08.505Z,2.42
2017-12-28T10:48:36.876Z,2.40
2017-12-28T10:51:04.529Z,2.13
2017-12-28T10:53:32.204Z,2.67
2017-12-28T10:55:59.808Z,2.58
2017-12-28T10:58:27.451Z,2.60
2017-12-28T11:00:55.065Z,2.00
2017-12-28T11:03:22.717Z,2.70
2017-12-28T11:05:50.335Z,2.37
2017-12-28T11:08:17.988Z,1.80
2017-12-28T11:10:46.364Z,2.17
2017-12-28T11:13:13.972Z,1.97
2017-12-28T11:15:41.760Z,2.50
2017-12-28T11:18:09.368Z,2.23
2017-12-28T11:20:37.305Z,1.90
2017-12-28T11:23:05.704Z,1.90
2017-12-28T11:25:33.936Z,1.87
2017-12-28T11:28:01.581Z,2.73
2017-12-28T11:30:29.188Z,3.07
2017-12-28T11:32:56.844Z,2.37
2017-12-28T11:35:25.214Z,1.80
2017-12-28T11:37:52.873Z,2.47
2017-12-28T11:40:21.217Z,2.40
2017-12-28T11:42:48.838Z,2.12
2017-12-28T11:45:16.497Z,1.57
2017-12-28T11:47:44.138Z,2.40
2017-12-28T11:50:11.836Z,2.00
2017-12-28T11:52:43.619Z,2.57
2017-12-28T11:55:17.560Z,2.33
2017-12-28T11:57:45.228Z,2.30
2017-12-28T12:00:19.121Z,2.83
2017-12-28T12:02:46.989Z,2.63
2017-12-28T12:05:20.188Z,2.33
2017-12-28T12:07:48.769Z,2.33
2017-12-28T12:10:22.064Z,2.03
2017-12-28T12:12:49.714Z,2.67
2017-12-28T12:15:17.335Z,1.92
2017-12-28T12:17:45.235Z,1.92
2017-12-28T12:20:12.844Z,2.25
2017-12-28T12:22:40.502Z,2.70
2017-12-28T12:25:08.644Z,2.15
2017-12-28T12:27:36.374Z,3.55
2017-12-28T12:30:04.077Z,3.53
2017-12-28T12:32:32.461Z,2.70
2017-12-28T12:35:00.884Z,2.20
2017-12-28T12:37:28.489Z,2.47
2017-12-28T12:39:56.143Z,2.10
2017-12-28T12:42:23.761Z,3.20
2017-12-28T12:44:51.429Z,2.30
2017-12-28T12:47:19.033Z,2.75
2017-12-28T12:49:47.452Z,2.23
2017-12-28T12:52:15.058Z,2.03
2017-12-28T12:54:42.700Z,2.20
2017-12-28T12:57:10.346Z,2.50
2017-12-28T12:59:38.656Z,2.70
2017-12-28T13:02:06.304Z,2.10
2017-12-28T13:04:33.965Z,2.60
2017-12-28T13:07:01.621Z,1.93
2017-12-28T13:09:29.233Z,2.07
2017-12-28T13:11:56.873Z,1.87
2017-12-28T13:14:25.077Z,1.90
2017-12-28T13:16:52.770Z,2.50
2017-12-28T13:19:21.234Z,3.00
2017-12-28T13:21:48.866Z,2.40
2017-12-28T13:24:16.759Z,2.87
2017-12-28T13:26:44.699Z,2.80
2017-12-28T13:29:12.438Z,2.50
2017-12-28T13:31:40.058Z,2.30
2017-12-28T13:34:07.710Z,2.20
2017-12-28T13:36:35.350Z,1.63
2017-12-28T13:39:03.261Z,2.10
2017-12-28T13:41:30.913Z,1.73
2017-12-28T13:43:58.521Z,2.70
2017-12-28T13:46:26.177Z,2.20
2017-12-28T13:48:53.787Z,2.03
2017-12-28T13:51:21.433Z,1.90
2017-12-28T13:53:49.220Z,2.13
2017-12-28T13:56:16.882Z,2.40
2017-12-28T13:58:44.487Z,1.50
2017-12-28T14:01:12.148Z,1.73
2017-12-28T14:03:39.958Z,1.70
2017-12-28T14:06:07.721Z,1.43
2017-12-28T14:08:35.333Z,1.87
2017-12-28T14:11:02.949Z,1.45
2017-12-28T14:13:31.558Z,1.53
2017-12-28T14:15:59.701Z,2.22
2017-12-28T14:18:28.613Z,2.05
2017-12-28T14:20:57.226Z,1.87
2017-12-28T14:23:24.906Z,1.90
2017-12-28T14:25:52.554Z,1.70
2017-12-28T14:28:20.773Z,2.22
2017-12-28T14:30:49.591Z,1.85
2017-12-28T14:33:17.254Z,1.73
2017-12-28T14:35:45.169Z,2.10
2017-12-28T14:38:13.634Z,2.00
2017-12-28T14:40:41.941Z,2.12
2017-12-28T14:43:10.267Z,2.00
2017-12-28T14:45:38.883Z,1.33
2017-12-28T14:48:06.756Z,1.57
2017-12-28T14:50:34.361Z,1.60
2017-12-28T14:53:02.025Z,1.87
2017-12-28T14:55:29.816Z,2.00
2017-12-28T14:57:57.486Z,2.03
2017-12-28T15:00:25.101Z,2.17
2017-12-28T15:02:52.753Z,2.67
2017-12-28T15:05:21.171Z,1.70
2017-12-28T15:07:49.066Z,1.47
2017-12-28T15:10:17.157Z,1.90
2017-12-28T15:12:44.801Z,1.80
2017-12-28T15:15:12.410Z,2.03
2017-12-28T15:17:41.327Z,1.90
2017-12-28T15:20:10.457Z,1.50
2017-12-28T15:22:39.070Z,1.40
2017-12-28T15:25:07.609Z,1.43
2017-12-28T15:27:35.999Z,1.50
2017-12-28T15:30:03.945Z,1.43
2017-12-28T15:32:31.894Z,2.10
2017-12-28T15:34:59.593Z,0.98
2017-12-28T15:37:27.209Z,1.60
2017-12-28T15:39:54.861Z,1.83
2017-12-28T15:42:22.532Z,1.30
2017-12-28T15:44:50.295Z,1.40
2017-12-28T15:47:18.060Z,1.50
2017-12-28T15:49:45.725Z,1.23
2017-12-28T15:52:13.341Z,1.83
2017-12-28T15:54:40.953Z,1.47
2017-12-28T15:57:08.613Z,1.65
2017-12-28T15:59:36.222Z,2.40
2017-12-28T16:02:03.849Z,1.57
2017-12-28T16:04:31.489Z,1.85
2017-12-28T16:06:59.858Z,1.67
2017-12-28T16:09:27.469Z,1.60
2017-12-28T16:11:55.125Z,1.87
2017-12-28T16:14:22.781Z,2.53
2017-12-28T16:16:51.157Z,1.80
2017-12-28T16:19:19.588Z,2.17
2017-12-28T16:21:47.352Z,2.00
2017-12-28T16:24:14.957Z,3.45
2017-12-28T16:26:43.405Z,1.70
2017-12-28T16:29:11.061Z,2.28
2017-12-28T16:31:38.673Z,3.72
2017-12-28T16:34:06.759Z,1.73
2017-12-28T16:36:34.421Z,1.48
2017-12-28T16:39:02.977Z,2.10
2017-12-28T16:41:30.626Z,1.60
2017-12-28T16:44:01.839Z,2.27
2017-12-28T16:46:29.718Z,2.85
2017-12-28T16:49:00.366Z,2.57
2017-12-28T16:51:28.742Z,2.60
2017-12-28T16:53:57.351Z,2.50
2017-12-28T16:56:25.859Z,7.30
2017-12-28T16:58:54.030Z,4.75
2017-12-28T17:01:22.011Z,3.22
2017-12-28T17:03:49.853Z,1.90
2017-12-28T17:06:18.075Z,2.33
2017-12-28T17:08:45.681Z,1.50
2017-12-28T17:11:13.357Z,2.13
2017-12-28T17:13:40.979Z,2.30
2017-12-28T17:16:09.384Z,3.70
2017-12-28T17:18:36.992Z,2.33
2017-12-28T17:21:04.636Z,3.17
2017-12-28T17:23:32.272Z,2.27
2017-12-28T17:26:00.698Z,2.97
2017-12-28T17:28:28.312Z,2.37
2017-12-28T17:30:55.965Z,3.28
2017-12-28T17:33:23.953Z,3.73
2017-12-28T17:35:52.061Z,2.95
2017-12-28T17:38:19.890Z,4.05
2017-12-28T17:40:50.658Z,3.20
2017-12-28T17:43:19.696Z,4.63
2017-12-28T17:45:47.977Z,2.53
2017-12-28T17:48:17.809Z,3.10
2017-12-28T17:50:45.561Z,4.10
2017-12-28T17:53:14.105Z,3.30
2017-12-28T17:55:42.069Z,3.10
2017-12-28T17:58:10.165Z,3.20
2017-12-28T18:00:40.580Z,2.78
2017-12-28T18:03:08.368Z,3.17
2017-12-28T18:05:35.999Z,3.57
2017-12-28T18:08:03.711Z,3.33
2017-12-28T18:10:33.657Z,2.67
2017-12-28T18:13:02.130Z,2.60
2017-12-28T18:15:29.753Z,3.40
2017-12-28T18:17:58.744Z,2.70
2017-12-28T18:20:29.649Z,3.30
2017-12-28T18:22:58.018Z,2.67
2017-12-28T18:25:26.281Z,3.00
2017-12-28T18:27:54.697Z,2.60
2017-12-28T18:30:22.382Z,3.17
2017-12-28T18:32:49.993Z,2.70
2017-12-28T18:35:17.649Z,3.40
2017-12-28T18:37:45.987Z,2.70
2017-12-28T18:40:13.913Z,3.10
2017-12-28T18:42:41.529Z,3.45
2017-12-28T18:45:11.211Z,3.10
2017-12-28T18:47:38.824Z,3.50
2017-12-28T18:50:06.430Z,2.43
2017-12-28T18:52:34.081Z,3.60
2017-12-28T18:55:02.286Z,3.15
2017-12-28T18:57:30.708Z,3.35
2017-12-28T18:59:58.568Z,4.03
2017-12-28T19:02:26.237Z,3.60
2017-12-28T19:04:54.922Z,4.07
2017-12-28T19:07:22.574Z,2.43
2017-12-28T19:09:50.177Z,4.07
2017-12-28T19:12:18.119Z,3.10
2017-12-28T19:14:45.810Z,3.60
2017-12-28T19:17:13.829Z,4.20
2017-12-28T19:19:42.490Z,5.90
2017-12-28T19:22:10.269Z,4.97
2017-12-28T19:24:37.933Z,4.78
2017-12-28T19:27:05.592Z,3.67
2017-12-28T19:29:33.196Z,3.63
2017-12-28T19:32:00.861Z,3.80
2017-12-28T19:34:29.096Z,4.07
2017-12-28T19:36:56.709Z,4.30
2017-12-28T19:39:25.689Z,5.17
2017-12-28T19:41:53.304Z,5.13
2017-12-28T19:44:20.969Z,4.47
2017-12-28T19:46:48.606Z,4.57
2017-12-28T19:49:16.528Z,4.28
2017-12-28T19:51:44.345Z,3.70
2017-12-28T19:54:12.014Z,4.50
2017-12-28T19:56:39.625Z,3.83
2017-12-28T19:59:08.046Z,3.67
2017-12-28T20:01:35.688Z,3.77
2017-12-28T20:04:03.312Z,4.07
2017-12-28T20:06:30.978Z,3.40
2017-12-28T20:08:59.433Z,3.50
2017-12-28T20:11:27.083Z,2.33
2017-12-28T20:13:55.506Z,4.70
2017-12-28T20:16:25.364Z,3.47
2017-12-28T20:18:53.846Z,3.97
2017-12-28T20:21:22.673Z,4.40
2017-12-28T20:23:50.309Z,4.00
2017-12-28T20:26:17.981Z,4.28
2017-12-28T20:28:45.685Z,3.63
2017-12-28T20:31:13.303Z,3.92
2017-12-28T20:33:41.035Z,4.17
2017-12-28T20:36:08.799Z,4.20
2017-12-28T20:38:37.198Z,3.03
2017-12-28T20:41:04.837Z,2.80
2017-12-28T20:43:33.212Z,3.67
2017-12-28T20:46:00.887Z,4.13
2017-12-28T20:48:28.515Z,4.50
2017-12-28T20:50:56.232Z,3.33
2017-12-28T20:53:23.850Z,2.90
2017-12-28T20:55:51.521Z,3.13
2017-12-28T20:58:19.130Z,2.25
2017-12-28T21:00:46.785Z,2.70
2017-12-28T21:03:15.205Z,3.13
2017-12-28T21:05:43.119Z,2.67
2017-12-28T21:08:12.182Z,2.50
2017-12-28T21:10:39.935Z,2.77
2017-12-28T21:13:07.602Z,4.10
2017-12-28T21:15:35.225Z,1.85
2017-12-28T21:18:02.901Z,1.77
2017-12-28T21:20:30.521Z,2.87
2017-12-28T21:22:58.176Z,2.70
2017-12-28T21:25:25.829Z,2.30
2017-12-28T21:27:53.436Z,2.70
2017-12-28T21:30:21.092Z,2.80
2017-12-28T21:32:48.712Z,2.75
2017-12-28T21:35:16.327Z,2.80
2017-12-28T21:37:43.979Z,1.70
2017-12-28T21:40:11.859Z,3.17
2017-12-28T21:42:39.514Z,2.78
2017-12-28T21:45:07.135Z,2.07
2017-12-28T21:47:34.817Z,2.87
2017-12-28T21:50:02.429Z,2.40
2017-12-28T21:52:31.608Z,2.97
2017-12-28T21:54:59.269Z,3.50
2017-12-28T21:57:26.922Z,3.03
2017-12-28T21:59:54.524Z,3.30
2017-12-28T22:02:22.920Z,2.70
2017-12-28T22:04:50.578Z,2.97
2017-12-28T22:07:18.189Z,3.20
2017-12-28T22:09:45.833Z,3.70
2017-12-28T22:12:14.065Z,4.20
2017-12-28T22:14:41.715Z,2.58
2017-12-28T22:17:09.395Z,3.50
2017-12-28T22:19:37.041Z,3.55
2017-12-28T22:22:04.654Z,3.50
2017-12-28T22:24:33.129Z,4.60
2017-12-28T22:27:00.805Z,4.07
2017-12-28T22:29:28.454Z,4.43
2017-12-28T22:31:56.133Z,4.50
2017-12-28T22:34:23.845Z,3.27
2017-12-28T22:36:51.505Z,4.22
2017-12-28T22:41:56.068Z,2.28
2017-12-28T22:44:23.677Z,4.37
2017-12-28T22:46:51.329Z,4.03
2017-12-28T22:49:18.946Z,3.50
2017-12-28T22:51:46.771Z,3.27
2017-12-28T22:54:14.386Z,4.03
2017-12-28T22:56:42.152Z,2.80
2017-12-28T22:59:09.772Z,3.37
2017-12-28T23:01:37.481Z,4.00
2017-12-28T23:04:05.153Z,3.77
2017-12-28T23:06:32.776Z,3.97
2017-12-28T23:09:00.427Z,4.90
2017-12-28T23:11:28.078Z,3.90
2017-12-28T23:13:55.732Z,3.33
2017-12-28T23:16:23.341Z,4.97
2017-12-28T23:18:51.005Z,3.30
2017-12-28T23:21:18.853Z,3.00
2017-12-28T23:23:46.501Z,3.40
2017-12-28T23:26:14.145Z,3.70
2017-12-28T23:28:41.835Z,4.70
2017-12-28T23:31:10.228Z,2.50
2017-12-28T23:33:38.696Z,4.53
2017-12-28T23:36:07.253Z,2.80
2017-12-28T23:38:34.871Z,2.50
2017-12-28T23:41:03.250Z,3.43
2017-12-28T23:43:32.240Z,4.57
2017-12-28T23:46:00.604Z,4.23
2017-12-28T23:48:29.025Z,3.53
2017-12-28T23:50:56.669Z,3.40
2017-12-28T23:53:24.917Z,3.93
2017-12-28T23:55:52.525Z,2.67
2017-12-28T23:58:20.128Z,3.40
